Goldwin, North Dakota
Current Conditions -  °F | °C
As of 1:55 PM on Tuesday 21 Oct 2014 (Local Time) from K46D Reporting Station
Haze Haze  
Wind Chill: 66°   Ceiling: Unl
Heat Index: 66°   Visibility: 1.2mi
Dew Point: 43°   Wind: 26mph
Humidity: 43%   Direction: 160°SSE
Pressure: 29.79"   Gusts: 33mph
Location:  47.1537°N, 99.3545°W
Report Text: K46D 211855Z AUTO 16023G29KT 1 1/4SM HZ CLR 19/06 A2979 RMK AO2
Loading
Personal Weather Stations






























Interactive Weather Map
Tropical Storm Tracking
New forecast layout! Learn more

10-Day Weather Forecast

Advertisements
Track Severe Weather on mobile